LPPR Airport Information

Runway Information
Runway 17 Length 11417 ft width 148 ft
Elevation 151 ft Threshold 984 ft Heading 169
Runway 35 Length 11417 ft Width 148 ft
Elevation 226 ft Threshold 492 ft Heading 349
Airport Frequencies
Type APP Name APP Frequency 121.1 MHZ
Type ATIS Name ATIS Frequency 124.3 MHZ
Type TWR Name TWR Frequency 118 MHZ
Airport Navaids
Type NDB Name Porto Frequency 367 KHZ
Type NDB Name Porto Frequency 327 KHZ
Type VOR-DME Name Porto Frequency 114100 KHZ
Airport Weather Information & NOTAM
LPPR 031300Z 32014KT CAVOK 21/13 Q1022